sensor_id;sensor_type;location;lat;lon;timestamp;pressure;altitude;pressure_sealevel;temperature;humidity
63395;BME280;49531;-34.520;150.798;2023-04-07T00:00:59;99738.97;;;21.54;58.85
63395;BME280;49531;-34.520;150.798;2023-04-07T00:03:26;99733.31;;;21.51;59.13
63395;BME280;49531;-34.520;150.798;2023-04-07T00:05:53;99737.47;;;21.43;59.14
63395;BME280;49531;-34.520;150.798;2023-04-07T00:08:20;99725.06;;;21.37;59.80
63395;BME280;49531;-34.520;150.798;2023-04-07T00:10:47;99723.44;;;21.36;60.11
63395;BME280;49531;-34.520;150.798;2023-04-07T00:13:14;99710.91;;;21.40;60.19
63395;BME280;49531;-34.520;150.798;2023-04-07T00:15:41;99701.31;;;21.48;59.83
63395;BME280;49531;-34.520;150.798;2023-04-07T00:18:11;99696.09;;;21.51;59.80
63395;BME280;49531;-34.520;150.798;2023-04-07T00:20:39;99690.38;;;21.53;60.01
63395;BME280;49531;-34.520;150.798;2023-04-07T00:23:06;99680.16;;;21.45;60.70
63395;BME280;49531;-34.520;150.798;2023-04-07T00:25:33;99673.69;;;21.41;60.27
63395;BME280;49531;-34.520;150.798;2023-04-07T00:28:00;99659.81;;;21.42;59.82
63395;BME280;49531;-34.520;150.798;2023-04-07T00:30:27;99680.09;;;21.50;60.14
63395;BME280;49531;-34.520;150.798;2023-04-07T00:32:54;99666.91;;;21.38;60.76
63395;BME280;49531;-34.520;150.798;2023-04-07T00:35:22;99670.72;;;21.37;61.68
63395;BME280;49531;-34.520;150.798;2023-04-07T00:37:49;99678.06;;;21.37;62.38
63395;BME280;49531;-34.520;150.798;2023-04-07T00:40:16;99672.13;;;21.35;63.02
63395;BME280;49531;-34.520;150.798;2023-04-07T00:42:43;99668.06;;;21.32;63.65
63395;BME280;49531;-34.520;150.798;2023-04-07T00:45:11;99668.81;;;21.38;64.74
63395;BME280;49531;-34.520;150.798;2023-04-07T00:47:38;99674.09;;;21.29;64.53
63395;BME280;49531;-34.520;150.798;2023-04-07T00:50:06;99670.72;;;21.37;64.56
63395;BME280;49531;-34.520;150.798;2023-04-07T00:52:33;99645.59;;;21.26;64.88
63395;BME280;49531;-34.520;150.798;2023-04-07T00:55:01;99648.13;;;21.42;65.25
63395;BME280;49531;-34.520;150.798;2023-04-07T00:57:29;99659.44;;;21.49;65.24
63395;BME280;49531;-34.520;150.798;2023-04-07T00:59:56;99643.72;;;21.46;64.52
63395;BME280;49531;-34.520;150.798;2023-04-07T01:02:35;99630.22;;;21.41;65.39
63395;BME280;49531;-34.520;150.798;2023-04-07T01:05:15;99619.19;;;21.32;65.05
63395;BME280;49531;-34.520;150.798;2023-04-07T01:08:00;99621.16;;;21.26;65.17
63395;BME280;49531;-34.520;150.798;2023-04-07T01:10:41;99610.88;;;21.23;65.08
63395;BME280;49531;-34.520;150.798;2023-04-07T01:13:22;99595.81;;;21.12;65.59
63395;BME280;49531;-34.520;150.798;2023-04-07T01:15:52;99581.72;;;21.10;66.48
63395;BME280;49531;-34.520;150.798;2023-04-07T01:18:25;99569.69;;;21.16;66.29
63395;BME280;49531;-34.520;150.798;2023-04-07T01:20:59;99564.72;;;21.23;67.40
63395;BME280;49531;-34.520;150.798;2023-04-07T01:24:00;99552.75;;;21.24;66.66
63395;BME280;49531;-34.520;150.798;2023-04-07T01:26:29;99540.13;;;21.34;66.71
63395;BME280;49531;-34.520;150.798;2023-04-07T01:29:32;99528.97;;;21.35;66.46
63395;BME280;49531;-34.520;150.798;2023-04-07T01:31:59;99503.13;;;21.38;65.18
63395;BME280;49531;-34.520;150.798;2023-04-07T01:34:30;99499.25;;;21.44;64.80
63395;BME280;49531;-34.520;150.798;2023-04-07T01:37:00;99485.00;;;21.52;64.87
63395;BME280;49531;-34.520;150.798;2023-04-07T01:39:28;99470.31;;;21.53;65.05
63395;BME280;49531;-34.520;150.798;2023-04-07T01:41:57;99471.41;;;21.52;64.55
63395;BME280;49531;-34.520;150.798;2023-04-07T01:44:27;99466.34;;;21.45;63.91
63395;BME280;49531;-34.520;150.798;2023-04-07T01:46:59;99464.06;;;21.52;64.81
63395;BME280;49531;-34.520;150.798;2023-04-07T01:49:29;99431.25;;;21.49;64.52
63395;BME280;49531;-34.520;150.798;2023-04-07T01:51:57;99444.75;;;21.68;63.78
63395;BME280;49531;-34.520;150.798;2023-04-07T01:54:25;99413.84;;;21.63;64.27
63395;BME280;49531;-34.520;150.798;2023-04-07T01:56:54;99416.38;;;21.74;63.73
63395;BME280;49531;-34.520;150.798;2023-04-07T01:59:22;99390.44;;;21.81;63.89
63395;BME280;49531;-34.520;150.798;2023-04-07T02:01:49;99355.00;;;21.59;63.84
63395;BME280;49531;-34.520;150.798;2023-04-07T02:04:31;99360.44;;;21.73;63.01
63395;BME280;49531;-34.520;150.798;2023-04-07T02:07:08;99352.47;;;21.76;63.33
63395;BME280;49531;-34.520;150.798;2023-04-07T02:09:38;99347.53;;;21.78;63.18
63395;BME280;49531;-34.520;150.798;2023-04-07T02:12:10;99329.03;;;21.80;62.37
63395;BME280;49531;-34.520;150.798;2023-04-07T02:14:39;99343.03;;;21.87;63.26
63395;BME280;49531;-34.520;150.798;2023-04-07T02:17:06;99344.81;;;21.78;62.71
63395;BME280;49531;-34.520;150.798;2023-04-07T02:19:34;99340.50;;;21.77;63.10
63395;BME280;49531;-34.520;150.798;2023-04-07T02:22:04;99341.31;;;21.78;63.72
63395;BME280;49531;-34.520;150.798;2023-04-07T02:24:32;99337.28;;;21.89;63.28
63395;BME280;49531;-34.520;150.798;2023-04-07T02:26:59;99315.53;;;21.89;63.08
63395;BME280;49531;-34.520;150.798;2023-04-07T02:29:27;99294.69;;;21.84;63.10
63395;BME280;49531;-34.520;150.798;2023-04-07T02:31:55;99299.03;;;21.85;63.54
63395;BME280;49531;-34.520;150.798;2023-04-07T02:34:22;99300.72;;;21.95;64.58
63395;BME280;49531;-34.520;150.798;2023-04-07T02:36:49;99294.88;;;22.02;64.79
63395;BME280;49531;-34.520;150.798;2023-04-07T02:39:16;99276.47;;;21.99;64.76
63395;BME280;49531;-34.520;150.798;2023-04-07T02:41:43;99259.75;;;22.05;64.41
63395;BME280;49531;-34.520;150.798;2023-04-07T02:44:10;99247.75;;;22.06;64.03
63395;BME280;49531;-34.520;150.798;2023-04-07T02:46:37;99245.53;;;22.08;64.04
63395;BME280;49531;-34.520;150.798;2023-04-07T02:49:04;99228.91;;;22.10;63.86
63395;BME280;49531;-34.520;150.798;2023-04-07T02:51:31;99216.81;;;22.16;63.88
63395;BME280;49531;-34.520;150.798;2023-04-07T02:53:59;99219.41;;;22.21;63.66
63395;BME280;49531;-34.520;150.798;2023-04-07T02:56:26;99199.69;;;22.15;63.43
63395;BME280;49531;-34.520;150.798;2023-04-07T02:58:53;99208.41;;;22.26;63.31
63395;BME280;49531;-34.520;150.798;2023-04-07T03:01:21;99202.88;;;22.31;62.69
63395;BME280;49531;-34.520;150.798;2023-04-07T03:03:48;99190.69;;;22.28;63.15
63395;BME280;49531;-34.520;150.798;2023-04-07T03:06:15;99186.56;;;22.40;62.92
63395;BME280;49531;-34.520;150.798;2023-04-07T03:08:42;99180.81;;;22.41;63.16
63395;BME280;49531;-34.520;150.798;2023-04-07T03:11:09;99179.91;;;22.46;62.84
63395;BME280;49531;-34.520;150.798;2023-04-07T03:13:36;99167.97;;;22.55;62.67
63395;BME280;49531;-34.520;150.798;2023-04-07T03:16:03;99167.03;;;22.60;62.81
63395;BME280;49531;-34.520;150.798;2023-04-07T03:18:30;99134.00;;;22.53;63.26
63395;BME280;49531;-34.520;150.798;2023-04-07T03:20:57;99152.19;;;22.66;62.60
63395;BME280;49531;-34.520;150.798;2023-04-07T03:23:25;99142.59;;;22.69;62.33
63395;BME280;49531;-34.520;150.798;2023-04-07T03:25:54;99140.34;;;22.71;61.93
63395;BME280;49531;-34.520;150.798;2023-04-07T03:28:22;99131.88;;;22.72;61.59
63395;BME280;49531;-34.520;150.798;2023-04-07T03:30:50;99126.63;;;22.76;61.58
63395;BME280;49531;-34.520;150.798;2023-04-07T03:33:17;99114.31;;;22.78;61.21
63395;BME280;49531;-34.520;150.798;2023-04-07T03:35:44;99111.75;;;22.82;61.30
63395;BME280;49531;-34.520;150.798;2023-04-07T03:38:11;99099.91;;;22.86;61.08
63395;BME280;49531;-34.520;150.798;2023-04-07T03:40:38;99098.97;;;22.91;61.17
63395;BME280;49531;-34.520;150.798;2023-04-07T03:43:06;99100.13;;;22.99;61.20
63395;BME280;49531;-34.520;150.798;2023-04-07T03:45:37;99083.75;;;22.90;60.85
63395;BME280;49531;-34.520;150.798;2023-04-07T03:48:05;99078.50;;;22.93;60.79
63395;BME280;49531;-34.520;150.798;2023-04-07T03:50:35;99074.34;;;22.96;60.73
63395;BME280;49531;-34.520;150.798;2023-04-07T03:53:02;99070.81;;;22.95;60.82
63395;BME280;49531;-34.520;150.798;2023-04-07T03:55:30;99059.59;;;22.97;60.60
63395;BME280;49531;-34.520;150.798;2023-04-07T03:57:57;99053.19;;;22.93;60.83
63395;BME280;49531;-34.520;150.798;2023-04-07T04:00:24;99072.59;;;23.00;60.76
63395;BME280;49531;-34.520;150.798;2023-04-07T04:02:52;99060.72;;;22.96;60.76
63395;BME280;49531;-34.520;150.798;2023-04-07T04:05:19;99061.53;;;22.97;60.70
63395;BME280;49531;-34.520;150.798;2023-04-07T04:07:46;99050.31;;;22.98;60.18
63395;BME280;49531;-34.520;150.798;2023-04-07T04:10:13;99051.59;;;23.01;60.31
63395;BME280;49531;-34.520;150.798;2023-04-07T04:12:41;99049.81;;;22.96;60.56
63395;BME280;49531;-34.520;150.798;2023-04-07T04:15:09;99067.47;;;23.07;60.46
63395;BME280;49531;-34.520;150.798;2023-04-07T04:17:36;99056.59;;;23.07;60.03
63395;BME280;49531;-34.520;150.798;2023-04-07T04:20:03;99056.44;;;23.12;59.89
63395;BME280;49531;-34.520;150.798;2023-04-07T04:22:30;99056.44;;;23.12;59.87
63395;BME280;49531;-34.520;150.798;2023-04-07T04:24:58;99056.28;;;23.17;59.67
63395;BME280;49531;-34.520;150.798;2023-04-07T04:27:26;99046.84;;;23.15;59.92
63395;BME280;49531;-34.520;150.798;2023-04-07T04:29:54;99045.53;;;23.12;59.96
63395;BME280;49531;-34.520;150.798;2023-04-07T04:32:21;99042.34;;;23.19;59.82
63395;BME280;49531;-34.520;150.798;2023-04-07T04:34:48;99042.16;;;23.24;59.68
63395;BME280;49531;-34.520;150.798;2023-04-07T04:37:16;99035.59;;;23.25;59.77
63395;BME280;49531;-34.520;150.798;2023-04-07T04:39:43;99035.59;;;23.25;59.57
63395;BME280;49531;-34.520;150.798;2023-04-07T04:42:10;99030.78;;;23.22;59.66
63395;BME280;49531;-34.520;150.798;2023-04-07T04:44:37;99034.31;;;23.22;59.81
63395;BME280;49531;-34.520;150.798;2023-04-07T04:47:04;99034.97;;;23.28;59.50
63395;BME280;49531;-34.520;150.798;2023-04-07T04:49:31;99028.25;;;23.34;59.56
63395;BME280;49531;-34.520;150.798;2023-04-07T04:51:58;99022.16;;;23.37;59.21
63395;BME280;49531;-34.520;150.798;2023-04-07T04:54:25;99011.41;;;23.32;59.13
63395;BME280;49531;-34.520;150.798;2023-04-07T04:56:52;99007.25;;;23.35;59.52
63395;BME280;49531;-34.520;150.798;2023-04-07T04:59:19;99004.38;;;23.40;59.27
63395;BME280;49531;-34.520;150.798;2023-04-07T05:01:47;98999.41;;;23.42;59.33
63395;BME280;49531;-34.520;150.798;2023-04-07T05:04:14;98994.75;;;23.42;59.22
63395;BME280;49531;-34.520;150.798;2023-04-07T05:06:43;98987.06;;;23.44;59.23
63395;BME280;49531;-34.520;150.798;2023-04-07T05:09:10;98971.03;;;23.43;59.23
63395;BME280;49531;-34.520;150.798;2023-04-07T05:11:39;98965.75;;;23.46;59.58
63395;BME280;49531;-34.520;150.798;2023-04-07T05:14:06;98959.66;;;23.49;59.19
63395;BME280;49531;-34.520;150.798;2023-04-07T05:16:34;98953.25;;;23.54;59.10
63395;BME280;49531;-34.520;150.798;2023-04-07T05:19:01;98937.84;;;23.49;58.99
63395;BME280;49531;-34.520;150.798;2023-04-07T05:21:29;98946.69;;;23.55;59.21
63395;BME280;49531;-34.520;150.798;2023-04-07T05:23:56;98929.53;;;23.54;58.85
63395;BME280;49531;-34.520;150.798;2023-04-07T05:26:23;98939.91;;;23.61;58.97
63395;BME280;49531;-34.520;150.798;2023-04-07T05:28:51;98939.59;;;23.63;59.13
63395;BME280;49531;-34.520;150.798;2023-04-07T05:31:18;98933.81;;;23.64;58.86
63395;BME280;49531;-34.520;150.798;2023-04-07T05:33:46;98912.66;;;23.61;59.15
63395;BME280;49531;-34.520;150.798;2023-04-07T05:36:13;98897.44;;;23.60;59.04
63395;BME280;49531;-34.520;150.798;2023-04-07T05:38:40;98885.13;;;23.54;59.08
63395;BME280;49531;-34.520;150.798;2023-04-07T05:41:07;98876.13;;;23.62;58.87
63395;BME280;49531;-34.520;150.798;2023-04-07T05:43:35;98892.91;;;23.73;58.93
63395;BME280;49531;-34.520;150.798;2023-04-07T05:46:02;98877.69;;;23.72;58.81
63395;BME280;49531;-34.520;150.798;2023-04-07T05:48:29;98873.84;;;23.73;58.73
63395;BME280;49531;-34.520;150.798;2023-04-07T05:50:56;98870.13;;;23.77;59.06
63395;BME280;49531;-34.520;150.798;2023-04-07T05:53:23;98868.38;;;23.73;58.95
63395;BME280;49531;-34.520;150.798;2023-04-07T05:55:50;98861.00;;;23.73;59.05
63395;BME280;49531;-34.520;150.798;2023-04-07T05:58:17;98855.38;;;23.78;58.93
63395;BME280;49531;-34.520;150.798;2023-04-07T06:00:45;98850.09;;;23.73;58.99
63395;BME280;49531;-34.520;150.798;2023-04-07T06:03:12;98851.53;;;23.79;59.07
63395;BME280;49531;-34.520;150.798;2023-04-07T06:05:40;98850.56;;;23.75;59.18
63395;BME280;49531;-34.520;150.798;2023-04-07T06:08:09;98854.91;;;23.76;59.39
63395;BME280;49531;-34.520;150.798;2023-04-07T06:10:36;98865.63;;;23.81;59.25
63395;BME280;49531;-34.520;150.798;2023-04-07T06:13:03;98873.34;;;23.79;59.17
63395;BME280;49531;-34.520;150.798;2023-04-07T06:15:30;98874.31;;;23.75;59.13
63395;BME280;49531;-34.520;150.798;2023-04-07T06:17:57;98876.72;;;23.76;59.12
63395;BME280;49531;-34.520;150.798;2023-04-07T06:20:24;98891.44;;;23.84;58.87
63395;BME280;49531;-34.520;150.798;2023-04-07T06:22:53;98894.31;;;23.87;58.97
63395;BME280;49531;-34.520;150.798;2023-04-07T06:25:20;98883.41;;;23.87;58.69
63395;BME280;49531;-34.520;150.798;2023-04-07T06:27:48;98875.38;;;23.91;58.55
63395;BME280;49531;-34.520;150.798;2023-04-07T06:30:15;98862.47;;;23.71;58.48
63395;BME280;49531;-34.520;150.798;2023-04-07T06:32:42;98871.09;;;23.73;58.82
63395;BME280;49531;-34.520;150.798;2023-04-07T06:35:10;98892.38;;;23.88;58.48
63395;BME280;49531;-34.520;150.798;2023-04-07T06:37:37;98880.38;;;23.80;58.82
63395;BME280;49531;-34.520;150.798;2023-04-07T06:40:06;98872.03;;;23.85;58.34
63395;BME280;49531;-34.520;150.798;2023-04-07T06:42:33;98863.38;;;23.83;58.45
63395;BME280;49531;-34.520;150.798;2023-04-07T06:45:00;98860.94;;;23.90;58.71
63395;BME280;49531;-34.520;150.798;2023-04-07T06:47:27;98867.28;;;24.03;58.51
63395;BME280;49531;-34.520;150.798;2023-04-07T06:49:54;98875.41;;;24.12;58.36
63395;BME280;49531;-34.520;150.798;2023-04-07T06:52:21;98873.63;;;24.16;58.21
63395;BME280;49531;-34.520;150.798;2023-04-07T06:54:48;98886.28;;;24.20;58.02
63395;BME280;49531;-34.520;150.798;2023-04-07T06:57:16;98890.00;;;24.16;58.40
63395;BME280;49531;-34.520;150.798;2023-04-07T06:59:43;98904.09;;;24.26;58.35
63395;BME280;49531;-34.520;150.798;2023-04-07T07:02:10;98913.88;;;24.27;58.36
63395;BME280;49531;-34.520;150.798;2023-04-07T07:04:37;98911.97;;;24.28;57.98
63395;BME280;49531;-34.520;150.798;2023-04-07T07:07:04;98906.97;;;24.30;58.03
63395;BME280;49531;-34.520;150.798;2023-04-07T07:09:31;98900.19;;;24.36;58.18
63395;BME280;49531;-34.520;150.798;2023-04-07T07:11:58;98895.91;;;24.26;58.07
63395;BME280;49531;-34.520;150.798;2023-04-07T07:14:27;98901.00;;;24.37;58.06
63395;BME280;49531;-34.520;150.798;2023-04-07T07:16:54;98894.28;;;24.34;57.97
63395;BME280;49531;-34.520;150.798;2023-04-07T07:19:21;98878.91;;;24.21;58.24
63395;BME280;49531;-34.520;150.798;2023-04-07T07:21:48;98898.75;;;24.39;58.10
63395;BME280;49531;-34.520;150.798;2023-04-07T07:24:15;98893.88;;;24.44;58.10
63395;BME280;49531;-34.520;150.798;2023-04-07T07:26:42;98894.81;;;24.48;57.70
63395;BME280;49531;-34.520;150.798;2023-04-07T07:29:11;98923.78;;;24.62;57.81
63395;BME280;49531;-34.520;150.798;2023-04-07T07:31:38;98929.38;;;24.65;57.34
63395;BME280;49531;-34.520;150.798;2023-04-07T07:34:05;98919.88;;;24.71;57.26
63395;BME280;49531;-34.520;150.798;2023-04-07T07:36:33;98917.63;;;24.73;57.26
63395;BME280;49531;-34.520;150.798;2023-04-07T07:39:00;98930.47;;;24.73;57.00
63395;BME280;49531;-34.520;150.798;2023-04-07T07:41:31;98941.84;;;24.75;57.05
63395;BME280;49531;-34.520;150.798;2023-04-07T07:43:58;98948.44;;;24.74;57.14
63395;BME280;49531;-34.520;150.798;2023-04-07T07:46:25;98939.44;;;24.73;57.07
63395;BME280;49531;-34.520;150.798;2023-04-07T07:48:52;98956.88;;;24.81;57.04
63395;BME280;49531;-34.520;150.798;2023-04-07T07:51:20;98966.00;;;24.85;56.92
63395;BME280;49531;-34.520;150.798;2023-04-07T07:53:52;98932.72;;;24.71;56.93
63395;BME280;49531;-34.520;150.798;2023-04-07T07:56:20;98898.06;;;24.42;56.94
63395;BME280;49531;-34.520;150.798;2023-04-07T07:58:47;98958.94;;;24.84;56.84
63395;BME280;49531;-34.520;150.798;2023-04-07T08:01:16;98918.75;;;24.72;56.85
63395;BME280;49531;-34.520;150.798;2023-04-07T08:03:44;98907.34;;;24.70;57.50
63395;BME280;49531;-34.520;150.798;2023-04-07T08:06:11;98923.22;;;24.77;57.57
63395;BME280;49531;-34.520;150.798;2023-04-07T08:08:38;98921.94;;;24.74;59.04
63395;BME280;49531;-34.520;150.798;2023-04-07T08:11:05;98907.41;;;24.62;59.90
63395;BME280;49531;-34.520;150.798;2023-04-07T08:13:35;98906.19;;;24.50;60.12
63395;BME280;49531;-34.520;150.798;2023-04-07T08:16:02;98889.00;;;24.50;59.33
63395;BME280;49531;-34.520;150.798;2023-04-07T08:18:29;98858.81;;;24.34;60.79
63395;BME280;49531;-34.520;150.798;2023-04-07T08:20:56;98862.00;;;24.36;59.33
63395;BME280;49531;-34.520;150.798;2023-04-07T08:23:23;98880.91;;;24.62;59.43
63395;BME280;49531;-34.520;150.798;2023-04-07T08:25:51;98916.25;;;24.58;59.52
63395;BME280;49531;-34.520;150.798;2023-04-07T08:28:18;98885.88;;;24.39;59.52
63395;BME280;49531;-34.520;150.798;2023-04-07T08:30:46;98920.41;;;24.65;59.67
63395;BME280;49531;-34.520;150.798;2023-04-07T08:33:14;98874.56;;;24.49;59.16
63395;BME280;49531;-34.520;150.798;2023-04-07T08:35:41;98863.38;;;24.42;59.51
63395;BME280;49531;-34.520;150.798;2023-04-07T08:38:09;98907.22;;;24.67;59.05
63395;BME280;49531;-34.520;150.798;2023-04-07T08:40:36;98873.84;;;24.61;59.22
63395;BME280;49531;-34.520;150.798;2023-04-07T08:43:08;98842.84;;;24.66;59.10
63395;BME280;49531;-34.520;150.798;2023-04-07T08:45:39;98841.09;;;24.61;59.15
63395;BME280;49531;-34.520;150.798;2023-04-07T08:48:15;98847.69;;;24.60;59.21
63395;BME280;49531;-34.520;150.798;2023-04-07T08:50:44;98858.69;;;24.72;59.07
63395;BME280;49531;-34.520;150.798;2023-04-07T08:53:13;98859.34;;;24.69;58.99
63395;BME280;49531;-34.520;150.798;2023-04-07T08:55:44;98846.69;;;24.65;58.74
63395;BME280;49531;-34.520;150.798;2023-04-07T08:58:13;98842.84;;;24.66;58.64
63395;BME280;49531;-34.520;150.798;2023-04-07T09:00:41;98859.22;;;24.66;58.72
63395;BME280;49531;-34.520;150.798;2023-04-07T09:03:11;98907.56;;;24.65;58.75
63395;BME280;49531;-34.520;150.798;2023-04-07T09:05:38;98950.09;;;24.66;58.89
63395;BME280;49531;-34.520;150.798;2023-04-07T09:08:05;98949.09;;;24.71;58.72
63395;BME280;49531;-34.520;150.798;2023-04-07T09:10:32;98933.84;;;24.70;58.79
63395;BME280;49531;-34.520;150.798;2023-04-07T09:13:00;98967.88;;;24.72;58.55
63395;BME280;49531;-34.520;150.798;2023-04-07T09:15:31;99024.09;;;24.73;59.01
63395;BME280;49531;-34.520;150.798;2023-04-07T09:17:58;99070.19;;;24.75;58.87
63395;BME280;49531;-34.520;150.798;2023-04-07T09:20:25;98994.75;;;24.62;58.83
63395;BME280;49531;-34.520;150.798;2023-04-07T09:22:52;98985.78;;;24.61;58.07
63395;BME280;49531;-34.520;150.798;2023-04-07T09:25:21;99003.00;;;24.53;57.55
63395;BME280;49531;-34.520;150.798;2023-04-07T09:27:57;99004.81;;;24.40;58.01
63395;BME280;49531;-34.520;150.798;2023-04-07T09:30:25;99015.41;;;24.42;57.63
63395;BME280;49531;-34.520;150.798;2023-04-07T09:32:52;98959.13;;;24.29;57.57
63395;BME280;49531;-34.520;150.798;2023-04-07T09:35:20;98920.91;;;24.37;57.47
63395;BME280;49531;-34.520;150.798;2023-04-07T09:38:01;98907.03;;;24.42;57.33
63395;BME280;49531;-34.520;150.798;2023-04-07T09:40:29;98923.09;;;24.44;57.41
63395;BME280;49531;-34.520;150.798;2023-04-07T09:42:56;98962.75;;;24.41;57.32
63395;BME280;49531;-34.520;150.798;2023-04-07T09:45:26;98991.22;;;24.32;57.18
63395;BME280;49531;-34.520;150.798;2023-04-07T09:47:54;99024.28;;;24.39;57.00
63395;BME280;49531;-34.520;150.798;2023-04-07T09:50:32;99027.91;;;24.43;57.34
63395;BME280;49531;-34.520;150.798;2023-04-07T09:53:01;99022.66;;;24.38;57.31
63395;BME280;49531;-34.520;150.798;2023-04-07T09:55:30;98993.47;;;24.30;57.14
63395;BME280;49531;-34.520;150.798;2023-04-07T09:57:57;98974.53;;;24.24;56.94
63395;BME280;49531;-34.520;150.798;2023-04-07T10:00:25;98969.06;;;24.33;56.93
63395;BME280;49531;-34.520;150.798;2023-04-07T10:02:52;98971.00;;;24.33;56.78
63395;BME280;49531;-34.520;150.798;2023-04-07T10:05:19;98972.94;;;24.32;57.23
63395;BME280;49531;-34.520;150.798;2023-04-07T10:07:48;98969.06;;;24.24;56.74
63395;BME280;49531;-34.520;150.798;2023-04-07T10:10:15;98977.44;;;24.19;56.34
63395;BME280;49531;-34.520;150.798;2023-04-07T10:12:43;98983.22;;;24.18;56.56
63395;BME280;49531;-34.520;150.798;2023-04-07T10:15:12;98968.97;;;24.12;56.81
63395;BME280;49531;-34.520;150.798;2023-04-07T10:17:46;98975.53;;;24.11;56.74
63395;BME280;49531;-34.520;150.798;2023-04-07T10:20:16;98984.84;;;24.10;56.91
63395;BME280;49531;-34.520;150.798;2023-04-07T10:22:44;98996.91;;;24.01;56.52
63395;BME280;49531;-34.520;150.798;2023-04-07T10:25:15;99023.91;;;23.93;56.50
63395;BME280;49531;-34.520;150.798;2023-04-07T10:27:50;99036.25;;;23.91;56.63
63395;BME280;49531;-34.520;150.798;2023-04-07T10:30:24;99021.03;;;23.81;56.79
63395;BME280;49531;-34.520;150.798;2023-04-07T10:32:52;99035.13;;;23.83;56.26
63395;BME280;49531;-34.520;150.798;2023-04-07T10:35:20;99025.50;;;23.86;56.02
63395;BME280;49531;-34.520;150.798;2023-04-07T10:38:11;99004.50;;;23.78;56.43
63395;BME280;49531;-34.520;150.798;2023-04-07T10:40:40;98988.00;;;23.74;56.58
63395;BME280;49531;-34.520;150.798;2023-04-07T10:43:08;98993.13;;;23.84;56.54
63395;BME280;49531;-34.520;150.798;2023-04-07T10:45:56;98995.53;;;23.77;56.50
63395;BME280;49531;-34.520;150.798;2023-04-07T10:48:25;98996.81;;;23.71;56.22
63395;BME280;49531;-34.520;150.798;2023-04-07T10:51:13;98991.69;;;23.70;56.57
63395;BME280;49531;-34.520;150.798;2023-04-07T10:57:05;98989.94;;;23.65;56.17
63395;BME280;49531;-34.520;150.798;2023-04-07T10:59:36;98985.13;;;23.62;56.17
63395;BME280;49531;-34.520;150.798;2023-04-07T11:02:30;98996.84;;;23.63;56.28
63395;BME280;49531;-34.520;150.798;2023-04-07T11:04:57;98987.25;;;23.56;56.03
63395;BME280;49531;-34.520;150.798;2023-04-07T11:07:44;98981.63;;;23.53;56.15
63395;BME280;49531;-34.520;150.798;2023-04-07T11:10:12;98984.53;;;23.56;55.95
63395;BME280;49531;-34.520;150.798;2023-04-07T11:12:42;98976.19;;;23.53;55.79
63395;BME280;49531;-34.520;150.798;2023-04-07T11:15:18;98968.94;;;23.48;55.46
63395;BME280;49531;-34.520;150.798;2023-04-07T11:18:20;98989.47;;;23.46;55.49
63395;BME280;49531;-34.520;150.798;2023-04-07T11:20:54;98981.63;;;23.36;55.70
63395;BME280;49531;-34.520;150.798;2023-04-07T11:23:23;98994.91;;;23.46;55.14
63395;BME280;49531;-34.520;150.798;2023-04-07T11:25:59;98959.97;;;23.31;55.21
63395;BME280;49531;-34.520;150.798;2023-04-07T11:28:28;98951.16;;;23.34;55.34
63395;BME280;49531;-34.520;150.798;2023-04-07T11:30:55;98977.28;;;23.35;55.42
63395;BME280;49531;-34.520;150.798;2023-04-07T11:33:28;98974.56;;;23.35;55.39
63395;BME280;49531;-34.520;150.798;2023-04-07T11:35:57;98967.34;;;23.30;55.07
63395;BME280;49531;-34.520;150.798;2023-04-07T11:38:28;98971.03;;;23.25;55.43
63395;BME280;49531;-34.520;150.798;2023-04-07T11:41:07;98978.25;;;23.21;55.14
63395;BME280;49531;-34.520;150.798;2023-04-07T11:43:36;98966.41;;;23.09;54.55
63395;BME280;49531;-34.520;150.798;2023-04-07T11:46:07;98985.94;;;23.19;54.80
63395;BME280;49531;-34.520;150.798;2023-04-07T11:48:35;98965.59;;;23.08;54.82
63395;BME280;49531;-34.520;150.798;2023-04-07T11:51:02;98974.91;;;23.16;54.86
63395;BME280;49531;-34.520;150.798;2023-04-07T11:53:33;98959.53;;;23.11;54.81
63395;BME280;49531;-34.520;150.798;2023-04-07T11:56:11;98972.47;;;23.23;54.58
63395;BME280;49531;-34.520;150.798;2023-04-07T11:58:49;98954.06;;;23.11;53.94
63395;BME280;49531;-34.520;150.798;2023-04-07T12:01:16;98943.81;;;23.08;54.22
63395;BME280;49531;-34.520;150.798;2023-04-07T12:03:57;98948.31;;;23.04;54.69
63395;BME280;49531;-34.520;150.798;2023-04-07T12:06:27;98940.13;;;23.04;54.22
63395;BME280;49531;-34.520;150.798;2023-04-07T12:08:54;98925.56;;;23.00;54.02
63395;BME280;49531;-34.520;150.798;2023-04-07T12:11:22;98936.13;;;23.02;54.42
63395;BME280;49531;-34.520;150.798;2023-04-07T12:13:51;98933.41;;;23.02;54.37
63395;BME280;49531;-34.520;150.798;2023-04-07T12:16:19;98913.69;;;22.96;54.36
63395;BME280;49531;-34.520;150.798;2023-04-07T12:18:47;98918.34;;;23.04;54.23
63395;BME280;49531;-34.520;150.798;2023-04-07T12:21:14;98898.00;;;22.93;54.22
63395;BME280;49531;-34.520;150.798;2023-04-07T12:23:42;98898.50;;;22.95;54.20
63395;BME280;49531;-34.520;150.798;2023-04-07T12:26:09;98900.72;;;22.93;53.69
63395;BME280;49531;-34.520;150.798;2023-04-07T12:28:37;98911.78;;;22.88;53.34
63395;BME280;49531;-34.520;150.798;2023-04-07T12:31:04;98914.81;;;22.78;52.99
63395;BME280;49531;-34.520;150.798;2023-04-07T12:33:31;98926.81;;;22.77;53.22
63395;BME280;49531;-34.520;150.798;2023-04-07T12:35:58;98911.25;;;22.60;52.07
63395;BME280;49531;-34.520;150.798;2023-04-07T12:38:26;98930.78;;;22.62;51.87
63395;BME280;49531;-34.520;150.798;2023-04-07T12:40:54;98935.41;;;22.53;52.01
63395;BME280;49531;-34.520;150.798;2023-04-07T12:43:21;98960.84;;;22.57;51.41